Time;durP1;ratioP1;P1;durP2;ratioP2;P2;SDS_P1;SDS_P2;PMS_P1;PMS_P2;Temp;Humidity;BMP_temperature;BMP_pressure;BME280_temperature;BME280_humidity;BME280_pressure;Samples;Min_cycle;Max_cycle;Signal;HPM_P1;HPM_P2
2024/01/13 00:01:26;;;;;;;9.20;4.10;;;;;;;0.77;100.00;99833.23;109587;1252;72652;-64
2024/01/13 00:04:15;;;;;;;9.50;3.00;;;;;;;0.79;100.00;99832.96;108732;1252;1002642;-62
2024/01/13 00:07:03;;;;;;;13.20;3.30;;;;;;;0.80;100.00;99825.95;109594;1252;60018;-64
2024/01/13 00:09:51;;;;;;;12.10;3.70;;;;;;;0.83;100.00;99830.39;109297;1252;71817;-63
2024/01/13 00:12:39;;;;;;;9.60;3.40;;;;;;;0.85;100.00;99827.52;109499;1252;67869;-64
2024/01/13 00:15:27;;;;;;;9.90;3.40;;;;;;;0.84;100.00;99820.02;109518;1252;71505;-64
2024/01/13 00:18:18;;;;;;;10.20;2.70;;;;;;;0.86;100.00;99815.08;109502;1252;57411;-62
2024/01/13 00:21:25;;;;;;;9.60;3.10;;;;;;;0.85;100.00;99809.48;109641;1252;58670;-63
2024/01/13 00:24:13;;;;;;;10.90;3.20;;;;;;;0.85;100.00;99810.05;109378;1252;74291;-62
2024/01/13 00:27:01;;;;;;;10.50;3.00;;;;;;;0.85;100.00;99808.62;109578;1252;68301;-61
2024/01/13 00:29:49;;;;;;;8.00;2.90;;;;;;;0.87;100.00;99805.42;109538;1252;72834;-62
2024/01/13 00:32:37;;;;;;;10.70;3.00;;;;;;;0.89;100.00;99801.14;109515;1251;57450;-62
2024/01/13 00:35:25;;;;;;;8.60;3.10;;;;;;;0.89;100.00;99797.81;109642;1252;60199;-63
2024/01/13 00:38:13;;;;;;;8.90;3.10;;;;;;;0.89;100.00;99793.79;109654;1252;74044;-63
2024/01/13 00:41:15;;;;;;;9.90;2.80;;;;;;;0.86;100.00;99794.79;109626;1252;69347;-63
2024/01/13 00:44:03;;;;;;;11.00;2.60;;;;;;;0.84;100.00;99785.63;109517;1252;72616;-63
2024/01/13 00:46:51;;;;;;;10.40;2.90;;;;;;;0.83;100.00;99786.02;109501;1252;58654;-62
2024/01/13 00:49:39;;;;;;;8.90;2.90;;;;;;;0.84;100.00;99789.65;109455;1252;60272;-62
2024/01/13 00:52:27;;;;;;;8.50;2.50;;;;;;;0.85;100.00;99786.28;109397;1252;72025;-63
2024/01/13 00:55:15;;;;;;;8.30;2.80;;;;;;;0.86;100.00;99785.72;109676;1252;65638;-63
2024/01/13 00:58:03;;;;;;;8.20;2.60;;;;;;;0.87;100.00;99788.98;109563;1252;70477;-63
2024/01/13 01:00:51;;;;;;;9.50;2.90;;;;;;;0.87;100.00;99794.57;109613;1251;57658;-63
2024/01/13 01:03:39;;;;;;;10.20;3.00;;;;;;;0.89;100.00;99791.54;109542;1252;61338;-63
2024/01/13 01:06:27;;;;;;;7.40;2.60;;;;;;;0.90;100.00;99795.67;109588;1252;71773;-64
2024/01/13 01:09:15;;;;;;;8.60;3.00;;;;;;;0.90;100.00;99797.23;109388;1252;68988;-62
2024/01/13 01:12:04;;;;;;;9.10;2.80;;;;;;;0.91;100.00;99796.52;109514;1252;72663;-63
2024/01/13 01:14:51;;;;;;;9.60;2.60;;;;;;;0.93;100.00;99795.73;109543;1252;57351;-63
2024/01/13 01:17:39;;;;;;;7.70;2.40;;;;;;;0.94;100.00;99796.91;109613;1252;58230;-63
2024/01/13 01:20:27;;;;;;;7.50;2.40;;;;;;;0.93;100.00;99795.19;109666;1251;73066;-64
2024/01/13 01:23:15;;;;;;;8.80;2.90;;;;;;;0.92;100.00;99790.15;108914;1251;1002084;-62
2024/01/13 01:26:03;;;;;;;8.10;2.60;;;;;;;0.92;100.00;99780.55;109632;1251;72751;-64
2024/01/13 01:28:51;;;;;;;8.00;2.30;;;;;;;0.91;100.00;99782.02;109698;1250;58584;-66
2024/01/13 01:31:39;;;;;;;10.20;2.90;;;;;;;0.91;100.00;99781.68;109662;1251;58681;-62
2024/01/13 01:34:26;;;;;;;8.50;2.30;;;;;;;0.91;100.00;99784.97;109750;1250;72039;-62
2024/01/13 01:37:15;;;;;;;11.00;2.70;;;;;;;0.91;100.00;99781.13;109766;1251;66656;-62
2024/01/13 01:40:04;;;;;;;7.50;2.10;;;;;;;0.91;100.00;99781.67;109681;1251;73528;-62
2024/01/13 01:42:51;;;;;;;6.10;2.10;;;;;;;0.89;100.00;99783.14;109639;1250;58505;-62
2024/01/13 01:45:39;;;;;;;8.50;2.60;;;;;;;0.86;100.00;99782.03;109707;1250;58419;-62
2024/01/13 01:48:40;;;;;;;10.20;2.40;;;;;;;0.84;100.00;99776.70;109652;1251;72740;-63
2024/01/13 01:51:32;;;;;;;7.30;2.40;;;;;;;0.85;100.00;99768.98;109570;1253;67753;-63
2024/01/13 01:54:20;;;;;;;9.30;2.50;;;;;;;0.86;100.00;99767.55;109680;1251;72419;-61
2024/01/13 01:57:14;;;;;;;10.10;2.80;;;;;;;0.87;100.00;99761.75;109748;1251;57326;-62
2024/01/13 02:00:03;;;;;;;8.40;2.10;;;;;;;0.88;100.00;99756.97;109529;1250;60239;-64
2024/01/13 02:02:58;;;;;;;9.20;2.50;;;;;;;0.87;100.00;99757.36;109683;1251;73939;-62
2024/01/13 02:05:46;;;;;;;8.50;2.70;;;;;;;0.85;100.00;99760.23;109721;1251;68876;-63
2024/01/13 02:08:34;;;;;;;7.90;2.30;;;;;;;0.82;100.00;99760.00;109619;1251;73675;-62
2024/01/13 02:11:29;;;;;;;7.90;2.30;;;;;;;0.84;100.00;99772.52;109649;1251;57490;-64
2024/01/13 02:14:16;;;;;;;8.80;2.70;;;;;;;0.83;100.00;99771.49;108832;1251;1002934;-62
2024/01/13 02:17:04;;;;;;;7.20;2.10;;;;;;;0.84;100.00;99771.13;109734;1250;72773;-62
2024/01/13 02:19:52;;;;;;;8.80;2.40;;;;;;;0.86;100.00;99767.71;109654;1250;68122;-63
2024/01/13 02:22:40;;;;;;;8.70;2.60;;;;;;;0.85;100.00;99769.34;109741;1251;72702;-63
2024/01/13 02:25:28;;;;;;;7.10;2.20;;;;;;;0.84;100.00;99772.86;109675;1250;57289;-63
2024/01/13 02:28:17;;;;;;;8.10;2.20;;;;;;;0.80;100.00;99776.37;109712;1251;60010;-61
2024/01/13 02:31:24;;;;;;;7.90;2.40;;;;;;;0.78;100.00;99777.14;109706;1250;73838;-63
2024/01/13 02:34:12;;;;;;;9.70;2.60;;;;;;;0.79;100.00;99775.70;109659;1251;68635;-63
2024/01/13 02:37:00;;;;;;;9.40;2.40;;;;;;;0.82;100.00;99774.34;109723;1250;72578;-63
2024/01/13 02:39:49;;;;;;;9.30;2.80;;;;;;;0.85;100.00;99777.04;109619;1250;57390;-63
2024/01/13 02:42:37;;;;;;;9.20;2.40;;;;;;;0.87;100.00;99780.64;109692;1251;61098;-60
2024/01/13 02:45:25;;;;;;;9.30;3.10;;;;;;;0.88;100.00;99779.85;109638;1251;73096;-64
2024/01/13 02:48:20;;;;;;;8.90;2.50;;;;;;;0.89;100.00;99779.30;109667;1251;66498;-63
2024/01/13 02:51:21;;;;;;;8.40;2.70;;;;;;;0.89;100.00;99776.52;109382;1251;72749;-62
2024/01/13 02:54:09;;;;;;;7.60;2.10;;;;;;;0.87;100.00;99774.66;108923;1251;1002156;-61
2024/01/13 02:56:59;;;;;;;8.30;2.20;;;;;;;0.85;100.00;99769.50;109562;1251;61115;-61
2024/01/13 02:59:47;;;;;;;7.90;2.40;;;;;;;0.83;100.00;99758.05;109752;1250;72037;-63
2024/01/13 03:02:36;;;;;;;8.50;2.70;;;;;;;0.84;100.00;99747.38;109733;1251;66641;-63
2024/01/13 03:05:24;;;;;;;7.80;2.60;;;;;;;0.85;100.00;99743.48;109562;1251;71581;-62
2024/01/13 03:08:12;;;;;;;7.10;2.30;;;;;;;0.83;100.00;99737.95;109681;1251;57358;-61
2024/01/13 03:11:13;;;;;;;7.20;2.00;;;;;;;0.89;100.00;99741.57;109756;1251;60335;-61
2024/01/13 03:14:03;;;;;;;8.80;2.40;;;;;;;0.89;100.00;99735.11;109739;1251;73920;-62
2024/01/13 03:16:50;;;;;;;6.90;2.20;;;;;;;0.89;100.00;99730.23;109779;1250;68909;-62
2024/01/13 03:19:38;;;;;;;7.90;2.50;;;;;;;0.87;100.00;99730.84;109699;1251;72316;-63
2024/01/13 03:22:26;;;;;;;6.70;2.20;;;;;;;0.88;100.00;99731.14;109691;1251;58590;-63
2024/01/13 03:25:14;;;;;;;9.10;2.10;;;;;;;0.89;100.00;99729.86;109537;1250;59971;-61
2024/01/13 03:28:02;;;;;;;7.50;2.60;;;;;;;0.89;100.00;99725.31;109738;1250;73209;-62
2024/01/13 03:30:50;;;;;;;7.00;2.30;;;;;;;0.89;100.00;99720.08;109665;1251;66857;-64
2024/01/13 03:33:38;;;;;;;7.20;2.30;;;;;;;0.91;100.00;99717.39;109686;1250;72351;-63
2024/01/13 03:36:26;;;;;;;8.10;2.30;;;;;;;0.90;100.00;99712.89;109685;1251;57934;-62
2024/01/13 03:39:14;;;;;;;7.20;2.40;;;;;;;0.90;100.00;99713.39;109724;1250;60448;-61
2024/01/13 03:42:03;;;;;;;8.00;2.10;;;;;;;0.88;100.00;99707.20;109743;1250;73049;-63
2024/01/13 03:44:51;;;;;;;6.90;2.30;;;;;;;0.88;100.00;99705.65;109742;1251;68492;-61
2024/01/13 03:47:40;;;;;;;8.80;2.60;;;;;;;0.87;100.00;99705.84;109782;1250;72576;-62
2024/01/13 03:50:28;;;;;;;8.40;2.70;;;;;;;0.88;100.00;99705.64;109705;1250;57580;-62
2024/01/13 03:53:16;;;;;;;8.80;2.60;;;;;;;0.88;100.00;99697.77;109632;1251;60108;-62
2024/01/13 03:56:04;;;;;;;10.50;2.80;;;;;;;0.91;100.00;99688.40;109659;1251;73638;-63
2024/01/13 03:58:53;;;;;;;9.80;2.50;;;;;;;0.92;100.00;99681.70;109746;1251;66695;-64
2024/01/13 04:01:41;;;;;;;9.10;2.90;;;;;;;0.93;100.00;99680.95;109695;1254;73406;-63
2024/01/13 04:04:29;;;;;;;9.30;2.70;;;;;;;0.93;100.00;99684.27;109635;1251;57328;-63
2024/01/13 04:07:17;;;;;;;9.60;3.80;;;;;;;0.93;100.00;99689.17;108904;1251;1002381;-64
2024/01/13 04:10:06;;;;;;;9.90;3.40;;;;;;;0.91;100.00;99682.80;109638;1251;73687;-64
2024/01/13 04:12:56;;;;;;;7.80;2.90;;;;;;;0.92;100.00;99682.21;109752;1251;67682;-63
2024/01/13 04:15:44;;;;;;;8.00;3.10;;;;;;;0.92;100.00;99674.02;109625;1251;72223;-64
2024/01/13 04:18:32;;;;;;;8.10;2.40;;;;;;;0.93;100.00;99669.77;109596;1251;57248;-65
2024/01/13 04:21:20;;;;;;;7.20;2.40;;;;;;;0.94;100.00;99669.02;109709;1252;59012;-64
2024/01/13 04:24:10;;;;;;;10.90;3.20;;;;;;;0.96;100.00;99666.31;109662;1251;71791;-64
2024/01/13 04:26:58;;;;;;;9.40;3.10;;;;;;;0.95;100.00;99665.30;109656;1251;69003;-64
2024/01/13 04:29:46;;;;;;;8.30;3.40;;;;;;;0.93;100.00;99660.31;109689;1251;71608;-67
2024/01/13 04:32:34;;;;;;;10.50;3.50;;;;;;;0.89;100.00;99656.31;109695;1251;57303;-63
2024/01/13 04:35:22;;;;;;;8.20;3.50;;;;;;;0.89;100.00;99655.30;109669;1251;60473;-62
2024/01/13 04:38:09;;;;;;;11.60;3.70;;;;;;;0.88;100.00;99654.77;109705;1250;71535;-64
2024/01/13 04:40:57;;;;;;;7.90;3.20;;;;;;;0.89;100.00;99648.48;109704;1251;68187;-62
2024/01/13 04:43:45;;;;;;;10.40;4.30;;;;;;;0.86;100.00;99650.15;109636;1250;72426;-62
2024/01/13 04:46:33;;;;;;;10.10;3.80;;;;;;;0.85;100.00;99643.38;109720;1250;58417;-61
2024/01/13 04:49:20;;;;;;;11.90;3.40;;;;;;;0.81;100.00;99637.62;109644;1251;61403;-62
2024/01/13 04:52:08;;;;;;;10.20;3.60;;;;;;;0.84;100.00;99645.89;109675;1251;74244;-64
2024/01/13 04:54:56;;;;;;;10.20;3.60;;;;;;;0.83;100.00;99644.52;109749;1251;67938;-63
2024/01/13 04:57:45;;;;;;;10.60;4.00;;;;;;;0.80;100.00;99644.64;109704;1250;73386;-63
2024/01/13 05:00:35;;;;;;;13.10;5.00;;;;;;;0.80;100.00;99646.25;109708;1251;58570;-63
2024/01/13 05:03:22;;;;;;;10.80;4.20;;;;;;;0.79;100.00;99649.60;109607;1251;60330;-63
2024/01/13 05:06:10;;;;;;;10.80;4.30;;;;;;;0.79;100.00;99653.41;109708;1250;72781;-62
2024/01/13 05:08:59;;;;;;;11.30;4.50;;;;;;;0.77;100.00;99652.14;109709;1251;68954;-63
2024/01/13 05:11:47;;;;;;;11.80;4.40;;;;;;;0.76;100.00;99645.34;109707;1254;73109;-64
2024/01/13 05:14:35;;;;;;;11.00;4.40;;;;;;;0.78;100.00;99647.02;109740;1251;57673;-63
2024/01/13 05:17:25;;;;;;;12.80;4.50;;;;;;;0.77;100.00;99642.16;109713;1251;58818;-63
2024/01/13 05:20:13;;;;;;;9.70;3.70;;;;;;;0.77;100.00;99638.52;109569;1251;73044;-63
2024/01/13 05:23:00;;;;;;;9.90;3.80;;;;;;;0.76;100.00;99631.08;109737;1251;68975;-62
2024/01/13 05:25:48;;;;;;;11.20;4.50;;;;;;;0.75;100.00;99626.55;109688;1251;73452;-64
2024/01/13 05:28:36;;;;;;;13.20;4.50;;;;;;;0.78;100.00;99621.54;109628;1251;58498;-63
2024/01/13 05:31:23;;;;;;;12.20;4.60;;;;;;;0.80;100.00;99620.55;109699;1250;58674;-62
2024/01/13 05:34:11;;;;;;;11.90;4.30;;;;;;;0.82;100.00;99612.44;109470;1251;73895;-64
2024/01/13 05:36:59;;;;;;;13.50;5.10;;;;;;;0.83;100.00;99611.67;109601;1251;66531;-62
2024/01/13 05:39:47;;;;;;;12.40;4.50;;;;;;;0.85;100.00;99609.32;109603;1251;71137;-63
2024/01/13 05:42:34;;;;;;;9.90;4.30;;;;;;;0.84;100.00;99602.20;109613;1253;57335;-63
2024/01/13 05:45:22;;;;;;;9.90;3.80;;;;;;;0.82;100.00;99601.63;109523;1251;61084;-64
2024/01/13 05:48:10;;;;;;;10.20;3.90;;;;;;;0.80;100.00;99600.46;108762;1254;1002451;-62
2024/01/13 05:50:59;;;;;;;11.70;4.80;;;;;;;0.78;100.00;99596.71;109551;1251;66678;-63
2024/01/13 05:53:47;;;;;;;14.60;5.80;;;;;;;0.77;100.00;99602.89;109634;1251;72392;-64
2024/01/13 05:56:36;;;;;;;12.30;5.10;;;;;;;0.78;100.00;99603.71;109558;1251;58489;-61
2024/01/13 05:59:24;;;;;;;12.40;5.20;;;;;;;0.76;100.00;99597.88;109437;1251;60011;-64
2024/01/13 06:02:13;;;;;;;13.50;5.40;;;;;;;0.73;100.00;99596.42;109640;1251;74008;-64
2024/01/13 06:05:02;;;;;;;12.00;4.80;;;;;;;0.73;100.00;99590.12;109467;1251;69155;-65
2024/01/13 06:07:50;;;;;;;12.50;5.30;;;;;;;0.71;100.00;99585.52;109525;1251;72389;-63
2024/01/13 06:10:38;;;;;;;15.30;5.60;;;;;;;0.67;100.00;99583.60;109647;1251;57783;-63
2024/01/13 06:13:26;;;;;;;13.90;5.00;;;;;;;0.61;100.00;99583.15;109589;1251;61042;-66
2024/01/13 06:16:14;;;;;;;13.20;6.00;;;;;;;0.56;100.00;99579.03;109523;1251;73898;-61
2024/01/13 06:19:02;;;;;;;13.10;5.30;;;;;;;0.52;100.00;99582.33;109627;1251;67860;-62
2024/01/13 06:21:50;;;;;;;13.30;5.90;;;;;;;0.50;100.00;99580.66;109490;1251;71203;-65
2024/01/13 06:24:38;;;;;;;14.50;6.50;;;;;;;0.44;100.00;99574.96;109520;1251;57591;-62
2024/01/13 06:27:26;;;;;;;14.10;6.20;;;;;;;0.44;100.00;99573.77;109639;1251;58712;-62
2024/01/13 06:30:14;;;;;;;14.20;6.40;;;;;;;0.43;100.00;99573.79;109664;1251;72745;-61
2024/01/13 06:33:03;;;;;;;15.90;6.90;;;;;;;0.41;100.00;99571.80;109596;1251;66623;-61
2024/01/13 06:35:51;;;;;;;16.00;5.70;;;;;;;0.39;100.00;99568.58;109594;1251;71469;-62
2024/01/13 06:38:40;;;;;;;18.20;7.20;;;;;;;0.34;100.00;99566.55;109533;1253;58725;-62
2024/01/13 06:41:27;;;;;;;16.70;7.00;;;;;;;0.29;100.00;99562.88;109332;1252;59973;-63
2024/01/13 06:44:16;;;;;;;21.30;7.90;;;;;;;0.27;100.00;99561.95;109534;1252;71503;-62
2024/01/13 06:47:05;;;;;;;17.80;6.80;;;;;;;0.25;100.00;99562.21;109547;1253;67271;-62
2024/01/13 06:49:53;;;;;;;21.30;8.00;;;;;;;0.19;100.00;99559.66;109347;1251;71317;-62
2024/01/13 06:52:42;;;;;;;18.30;6.90;;;;;;;0.18;100.00;99560.42;109506;1253;59734;-63
2024/01/13 06:55:29;;;;;;;14.20;6.00;;;;;;;0.17;100.00;99549.65;109298;1253;61302;-61
2024/01/13 06:58:17;;;;;;;11.40;4.20;;;;;;;0.15;100.00;99543.09;109355;1254;72910;-62
2024/01/13 07:01:06;;;;;;;11.80;4.30;;;;;;;0.12;100.00;99541.28;109537;1252;66659;-65
2024/01/13 07:03:55;;;;;;;10.00;4.40;;;;;;;0.10;100.00;99537.35;109476;1253;71386;-61
2024/01/13 07:06:43;;;;;;;12.70;5.10;;;;;;;0.08;100.00;99521.91;109361;1253;57483;-64
2024/01/13 07:09:31;;;;;;;13.80;4.80;;;;;;;0.09;100.00;99527.46;109619;1252;58766;-63
2024/01/13 07:12:19;;;;;;;13.00;5.20;;;;;;;0.10;100.00;99522.36;109476;1253;72962;-61
2024/01/13 07:15:08;;;;;;;13.70;4.70;;;;;;;0.13;100.00;99523.83;109494;1253;66393;-62
2024/01/13 07:18:00;;;;;;;15.20;5.20;;;;;;;0.10;100.00;99515.57;108544;1253;1002389;-62
2024/01/13 07:20:49;;;;;;;11.00;4.60;;;;;;;0.10;100.00;99509.64;109537;1252;57349;-61
2024/01/13 07:23:37;;;;;;;10.90;5.20;;;;;;;0.10;100.00;99504.04;109294;1252;60547;-61
2024/01/13 07:26:25;;;;;;;12.20;6.10;;;;;;;0.13;100.00;99499.05;109623;1255;72259;-62
2024/01/13 07:29:13;;;;;;;12.90;6.00;;;;;;;0.14;100.00;99496.52;109346;1252;67591;-62
2024/01/13 07:32:00;;;;;;;11.90;5.30;;;;;;;0.15;100.00;99498.58;109542;1254;71091;-62
2024/01/13 07:34:49;;;;;;;12.30;5.50;;;;;;;0.18;100.00;99499.67;109492;1253;57569;-62
2024/01/13 07:37:36;;;;;;;11.50;5.20;;;;;;;0.20;100.00;99504.47;109547;1254;60136;-61
2024/01/13 07:40:25;;;;;;;12.20;5.30;;;;;;;0.24;100.00;99503.98;109577;1253;72975;-65
2024/01/13 07:43:13;;;;;;;11.70;5.10;;;;;;;0.27;100.00;99500.52;109273;1253;67606;-63
2024/01/13 07:46:00;;;;;;;12.80;5.30;;;;;;;0.27;100.00;99495.09;109598;1253;72501;-64
2024/01/13 07:48:49;;;;;;;11.10;5.00;;;;;;;0.27;100.00;99488.66;109385;1253;57578;-63
2024/01/13 07:51:38;;;;;;;11.00;4.80;;;;;;;0.26;100.00;99487.30;109486;1255;60135;-63
2024/01/13 07:54:25;;;;;;;14.10;4.50;;;;;;;0.29;100.00;99480.34;109512;1254;71839;-63
2024/01/13 07:57:14;;;;;;;10.30;4.60;;;;;;;0.31;100.00;99466.98;109598;1252;67659;-62
2024/01/13 08:00:03;;;;;;;11.30;4.40;;;;;;;0.30;100.00;99459.38;109464;1254;71470;-61
2024/01/13 08:02:59;;;;;;;9.90;3.60;;;;;;;0.29;100.00;99461.13;109465;1254;58531;-62
2024/01/13 08:05:47;;;;;;;10.20;4.00;;;;;;;0.28;100.00;99459.45;109503;1253;60392;-63
2024/01/13 08:08:35;;;;;;;9.70;4.10;;;;;;;0.24;100.00;99449.36;109588;1253;73154;-64
2024/01/13 08:11:23;;;;;;;7.40;2.90;;;;;;;0.22;100.00;99442.80;109572;1253;67615;-64
2024/01/13 08:14:24;;;;;;;10.90;4.20;;;;;;;0.21;100.00;99434.10;109528;1252;72823;-62
2024/01/13 08:17:12;;;;;;;10.30;3.30;;;;;;;0.23;100.00;99428.09;109504;1253;58440;-63
2024/01/13 08:20:04;;;;;;;8.10;3.50;;;;;;;0.24;100.00;99426.83;109593;1251;58005;-62
2024/01/13 08:22:52;;;;;;;8.50;3.60;;;;;;;0.23;100.00;99420.61;109562;1252;74017;-63
2024/01/13 08:25:40;;;;;;;8.60;3.70;;;;;;;0.20;100.00;99417.09;109610;1251;67857;-64
2024/01/13 08:28:28;;;;;;;8.70;3.60;;;;;;;0.16;100.00;99409.38;109596;1251;72484;-63
2024/01/13 08:31:16;;;;;;;8.60;3.80;;;;;;;0.08;100.00;99404.88;109211;1251;58342;-65
2024/01/13 08:34:20;;;;;;;9.00;3.50;;;;;;;0.00;100.00;99400.86;109651;1251;60016;-62
2024/01/13 08:37:08;;;;;;;9.00;3.80;;;;;;;-0.04;100.00;99392.16;109542;1251;71809;-61
2024/01/13 08:39:56;;;;;;;9.70;4.00;;;;;;;-0.09;100.00;99381.39;109725;1251;67823;-63
2024/01/13 08:42:47;;;;;;;10.60;4.30;;;;;;;-0.10;100.00;99375.85;109579;1256;70210;-64
2024/01/13 08:45:35;;;;;;;11.70;4.40;;;;;;;-0.08;100.00;99375.23;109480;1251;58728;-62
2024/01/13 08:48:24;;;;;;;10.10;4.30;;;;;;;-0.01;100.00;99365.16;109533;1251;61979;-63
2024/01/13 08:51:12;;;;;;;10.60;3.40;;;;;;;0.02;100.00;99368.67;109529;1250;73488;-63
2024/01/13 08:54:17;;;;;;;11.60;4.10;;;;;;;0.07;100.00;99366.72;109643;1251;66656;-62
2024/01/13 08:57:05;;;;;;;10.30;4.40;;;;;;;0.18;100.00;99358.52;109514;1251;72462;-63
2024/01/13 08:59:54;;;;;;;9.80;3.70;;;;;;;0.25;100.00;99351.04;109529;1251;58124;-64
2024/01/13 09:02:42;;;;;;;10.90;3.60;;;;;;;0.35;100.00;99344.47;109608;1251;58108;-64
2024/01/13 09:05:31;;;;;;;9.10;3.40;;;;;;;0.46;100.00;99339.95;109306;1251;72892;-62
2024/01/13 09:08:20;;;;;;;9.10;3.50;;;;;;;0.54;100.00;99337.84;109448;1251;67576;-61
2024/01/13 09:11:09;;;;;;;10.50;3.80;;;;;;;0.59;100.00;99332.19;109590;1251;72505;-66
2024/01/13 09:13:59;;;;;;;7.10;3.00;;;;;;;0.75;100.00;99319.34;109573;1251;57296;-63
2024/01/13 09:16:48;;;;;;;9.70;3.40;;;;;;;0.88;99.84;99312.61;109500;1251;61255;-63
2024/01/13 09:19:36;;;;;;;8.00;3.00;;;;;;;0.88;98.57;99304.20;109478;1251;73698;-63
2024/01/13 09:22:24;;;;;;;9.90;3.70;;;;;;;0.73;97.91;99292.73;108757;1251;1002858;-64
2024/01/13 09:25:12;;;;;;;9.20;3.90;;;;;;;0.66;98.94;99283.62;109495;1251;71310;-61
2024/01/13 09:28:01;;;;;;;9.80;4.10;;;;;;;0.63;98.80;99277.85;109586;1251;59437;-62
2024/01/13 09:30:50;;;;;;;9.20;3.90;;;;;;;0.57;98.02;99275.02;109274;1251;257118;-64
2024/01/13 09:33:39;;;;;;;9.60;3.70;;;;;;;0.65;98.35;99266.95;109485;1251;73101;-64
2024/01/13 09:36:29;;;;;;;12.10;4.40;;;;;;;0.72;97.03;99255.09;109193;1254;66177;-63
2024/01/13 09:39:20;;;;;;;10.30;4.10;;;;;;;0.85;96.14;99249.39;109182;1254;71079;-63
2024/01/13 09:42:26;;;;;;;9.00;3.40;;;;;;;0.97;95.64;99258.73;109232;1253;58819;-63
2024/01/13 09:45:20;;;;;;;10.10;3.80;;;;;;;1.02;95.07;99259.33;109317;1254;61359;-64
2024/01/13 09:48:09;;;;;;;12.30;4.40;;;;;;;1.12;94.67;99244.67;109190;1254;74008;-65
2024/01/13 09:50:59;;;;;;;11.90;4.40;;;;;;;1.17;94.31;99238.10;109232;1254;68107;-63
2024/01/13 09:54:01;;;;;;;11.20;4.90;;;;;;;1.15;93.53;99231.25;109245;1254;71185;-63
2024/01/13 09:56:50;;;;;;;11.70;4.30;;;;;;;1.13;93.92;99224.36;109122;1254;58165;-63
2024/01/13 09:59:40;;;;;;;11.50;4.10;;;;;;;1.34;94.33;99227.42;109197;1253;59400;-63
2024/01/13 10:02:30;;;;;;;11.00;4.50;;;;;;;1.56;93.16;99219.62;109300;1257;73853;-64
2024/01/13 10:05:19;;;;;;;11.70;4.80;;;;;;;1.64;92.71;99209.92;109308;1254;67894;-65
2024/01/13 10:08:06;;;;;;;12.60;4.70;;;;;;;1.61;91.72;99209.95;109467;1251;72607;-63
2024/01/13 10:10:54;;;;;;;10.80;4.10;;;;;;;1.56;92.18;99208.79;109593;1251;58537;-62
2024/01/13 10:14:00;;;;;;;13.80;4.60;;;;;;;1.48;92.00;99205.00;109432;1251;60501;-66
2024/01/13 10:16:49;;;;;;;11.90;4.40;;;;;;;1.52;93.08;99204.45;109458;1250;73069;-64
2024/01/13 10:19:41;;;;;;;12.60;5.00;;;;;;;1.53;93.16;99202.48;109559;1251;67882;-63
2024/01/13 10:22:37;;;;;;;9.70;3.70;;;;;;;1.49;93.38;99198.13;109433;1251;72498;-64
2024/01/13 10:25:25;;;;;;;13.20;4.70;;;;;;;1.35;92.70;99195.42;109483;1251;58459;-65
2024/01/13 10:28:15;;;;;;;12.70;4.80;;;;;;;1.24;93.18;99189.38;109234;1257;60071;-67
2024/01/13 10:31:04;;;;;;;10.20;4.00;;;;;;;1.18;94.19;99183.17;109262;1257;72015;-63
2024/01/13 10:33:53;;;;;;;13.50;4.30;;;;;;;1.12;94.53;99175.98;108858;1260;67586;-64
2024/01/13 10:36:42;;;;;;;10.20;3.70;;;;;;;0.96;94.73;99168.44;108925;1260;71746;-64
2024/01/13 10:39:30;;;;;;;11.50;4.40;;;;;;;0.76;95.83;99155.17;108915;1260;58862;-67
2024/01/13 10:42:24;;;;;;;10.50;4.70;;;;;;;0.68;97.41;99150.15;108858;1260;59131;-63
2024/01/13 10:45:16;;;;;;;11.30;4.70;;;;;;;0.73;97.88;99150.58;108867;1260;73760;-62
2024/01/13 10:48:16;;;;;;;10.90;4.10;;;;;;;0.65;97.99;99146.29;108902;1260;67708;-65
2024/01/13 10:51:15;;;;;;;11.80;4.90;;;;;;;0.66;98.82;99139.41;108870;1260;72549;-64
2024/01/13 10:54:25;;;;;;;11.70;4.60;;;;;;;0.71;99.04;99131.71;108900;1260;57424;-63
2024/01/13 10:57:14;;;;;;;12.90;4.90;;;;;;;0.86;99.94;99126.00;108885;1259;60271;-62
2024/01/13 11:00:10;;;;;;;11.90;4.80;;;;;;;1.01;99.03;99122.08;109125;1255;73038;-64
2024/01/13 11:03:01;;;;;;;12.50;4.30;;;;;;;1.07;98.35;99106.19;109273;1254;66812;-64
2024/01/13 11:05:50;;;;;;;12.40;4.70;;;;;;;0.97;97.83;99096.23;109774;1249;73671;-66
2024/01/13 11:08:38;;;;;;;13.80;5.10;;;;;;;0.85;98.47;99082.58;109632;1251;57283;-62
2024/01/13 11:11:38;;;;;;;14.20;4.90;;;;;;;0.74;99.25;99072.67;109224;1251;60064;-64
2024/01/13 11:14:51;;;;;;;15.20;5.40;;;;;;;0.62;99.81;99055.16;109537;1251;72764;-62
2024/01/13 11:17:40;;;;;;;11.90;5.20;;;;;;;0.56;100.00;99040.82;109576;1251;66737;-62
2024/01/13 11:20:59;;;;;;;10.90;4.80;;;;;;;0.55;100.00;99037.34;109523;1253;73678;-64
2024/01/13 11:23:58;;;;;;;16.10;6.10;;;;;;;0.51;100.00;99029.91;109508;1252;57469;-64
2024/01/13 11:26:50;;;;;;;15.80;6.30;;;;;;;0.46;100.00;99018.98;109676;1250;60079;-62
2024/01/13 11:29:42;;;;;;;14.20;5.40;;;;;;;0.46;100.00;99011.16;109636;1250;73346;-65
2024/01/13 11:32:30;;;;;;;14.10;5.30;;;;;;;0.47;100.00;98999.55;109559;1250;67881;-63
2024/01/13 11:35:22;;;;;;;12.90;5.10;;;;;;;0.49;100.00;98995.94;109655;1250;71065;-64
2024/01/13 11:38:13;;;;;;;13.40;5.50;;;;;;;0.51;100.00;98996.38;109633;1250;57415;-64
2024/01/13 11:41:06;;;;;;;13.70;5.60;;;;;;;0.44;100.00;98993.91;109656;1251;61605;-63
2024/01/13 11:43:56;;;;;;;12.70;4.70;;;;;;;0.39;100.00;98990.02;109669;1250;72611;-63
2024/01/13 11:46:57;;;;;;;17.30;6.10;;;;;;;0.32;100.00;98991.95;109650;1251;67947;-62
2024/01/13 11:49:45;;;;;;;11.90;4.80;;;;;;;0.24;100.00;98989.59;109623;1251;73396;-64
2024/01/13 11:52:33;;;;;;;12.70;5.30;;;;;;;0.12;100.00;98983.38;109611;1251;57459;-63
2024/01/13 11:55:21;;;;;;;11.10;4.80;;;;;;;0.09;100.00;98973.29;109594;1252;59022;-63
2024/01/13 11:58:10;;;;;;;12.90;5.30;;;;;;;0.10;100.00;98962.60;109325;1253;73884;-63
2024/01/13 12:00:58;;;;;;;14.60;5.60;;;;;;;0.09;100.00;98955.14;109490;1252;66488;-64
2024/01/13 12:03:46;;;;;;;11.30;4.80;;;;;;;0.08;100.00;98948.23;109499;1252;72381;-63
2024/01/13 12:06:34;;;;;;;13.40;5.20;;;;;;;0.05;100.00;98938.09;109482;1252;57594;-63
2024/01/13 12:09:28;;;;;;;11.80;4.90;;;;;;;0.10;100.00;98932.40;109424;1252;60351;-64
2024/01/13 12:12:17;;;;;;;12.40;4.80;;;;;;;0.13;100.00;98917.44;109548;1252;73098;-62
2024/01/13 12:15:06;;;;;;;12.20;4.60;;;;;;;0.17;100.00;98910.58;109535;1252;68696;-62
2024/01/13 12:17:57;;;;;;;12.40;4.60;;;;;;;0.17;100.00;98900.80;109484;1252;72723;-67
2024/01/13 12:21:00;;;;;;;11.40;4.70;;;;;;;0.18;100.00;98892.58;109536;1251;57993;-63
2024/01/13 12:23:48;;;;;;;12.00;4.60;;;;;;;0.18;100.00;98880.54;109477;1253;58409;-63
2024/01/13 12:26:36;;;;;;;15.40;5.50;;;;;;;0.14;100.00;98865.89;109465;1252;73015;-63
2024/01/13 12:29:29;;;;;;;13.60;4.80;;;;;;;0.09;100.00;98853.92;109470;1253;69166;-65
2024/01/13 12:32:18;;;;;;;13.70;5.80;;;;;;;0.08;100.00;98848.61;109501;1252;71514;-65
2024/01/13 12:35:07;;;;;;;13.00;5.30;;;;;;;0.11;100.00;98844.26;109510;1252;57709;-62
2024/01/13 12:37:55;;;;;;;13.40;5.30;;;;;;;0.08;100.00;98845.63;109601;1252;59263;-64
2024/01/13 12:40:43;;;;;;;12.90;4.40;;;;;;;0.06;100.00;98837.07;109451;1252;72903;-62
2024/01/13 12:43:32;;;;;;;13.30;4.80;;;;;;;0.03;100.00;98825.52;109466;1252;67592;-63
2024/01/13 12:46:20;;;;;;;12.70;5.10;;;;;;;-0.02;100.00;98819.64;109401;1254;70444;-64
2024/01/13 12:49:16;;;;;;;13.60;5.10;;;;;;;-0.03;100.00;98811.52;109580;1252;57349;-64
2024/01/13 12:52:06;;;;;;;13.90;5.40;;;;;;;-0.12;100.00;98801.89;109532;1252;60265;-63
2024/01/13 12:54:55;;;;;;;15.40;5.60;;;;;;;-0.10;100.00;98808.77;109464;1253;72795;-62
2024/01/13 12:57:54;;;;;;;16.10;5.10;;;;;;;-0.10;100.00;98802.12;109535;1252;65803;-61
2024/01/13 13:00:43;;;;;;;15.90;5.50;;;;;;;-0.14;100.00;98798.31;109567;1251;72409;-63
2024/01/13 13:03:33;;;;;;;15.30;5.50;;;;;;;-0.14;100.00;98784.39;109546;1252;57237;-64
2024/01/13 13:06:22;;;;;;;12.10;4.90;;;;;;;-0.15;100.00;98769.28;109435;1252;60112;-62